Time;durP1;ratioP1;P1;durP2;ratioP2;P2;SDS_P1;SDS_P2;PMS_P1;PMS_P2;Temp;Humidity;BMP_temperature;BMP_pressure;BME280_temperature;BME280_humidity;BME280_pressure;Samples;Min_cycle;Max_cycle;Signal;HPM_P1;HPM_P2
2021/11/03 00:02:13;;;;;;;6.40;5.00;;;;;;;5.82;88.78;100085.69;5055911;28;20025;-39
2021/11/03 00:04:40;;;;;;;7.75;5.10;;;;;;;5.74;88.89;100096.00;5056034;28;20021;-36
2021/11/03 00:07:07;;;;;;;9.55;5.57;;;;;;;5.72;88.79;100086.88;5055938;28;20021;-38
2021/11/03 00:09:33;;;;;;;11.65;6.18;;;;;;;5.65;89.03;100094.47;5056425;28;20383;-36
2021/11/03 00:11:58;;;;;;;10.43;6.20;;;;;;;5.69;89.53;100094.91;5055887;28;20024;-37
2021/11/03 00:14:24;;;;;;;11.20;6.63;;;;;;;5.60;89.44;100083.91;5056099;28;20033;-37
2021/11/03 00:16:49;;;;;;;9.82;7.00;;;;;;;5.58;90.25;100090.97;5055789;28;20167;-38
2021/11/03 00:19:14;;;;;;;10.07;6.75;;;;;;;5.49;90.16;100092.00;5055767;28;20020;-37
2021/11/03 00:21:40;;;;;;;10.40;7.47;;;;;;;5.50;89.78;100091.84;5054828;28;20151;-37
2021/11/03 00:24:05;;;;;;;11.90;7.45;;;;;;;5.48;90.42;100092.97;5055659;28;20025;-37
2021/11/03 00:26:30;;;;;;;14.20;6.78;;;;;;;5.50;90.12;100086.72;5055652;28;20033;-37
2021/11/03 00:28:57;;;;;;;10.10;6.82;;;;;;;5.48;90.02;100090.41;5055556;28;20025;-37
2021/11/03 00:31:22;;;;;;;11.93;6.97;;;;;;;5.26;89.48;100091.97;5055815;28;20029;-36
2021/11/03 00:33:47;;;;;;;15.00;7.93;;;;;;;5.10;90.88;100103.13;5055805;28;20036;-36
2021/11/03 00:36:13;;;;;;;12.10;8.23;;;;;;;5.07;91.62;100096.56;5055444;28;20024;-36
2021/11/03 00:38:38;;;;;;;12.73;8.73;;;;;;;5.10;91.04;100087.75;5055467;28;20021;-36
2021/11/03 00:41:05;;;;;;;16.95;10.02;;;;;;;5.26;91.14;100090.22;5055460;28;20104;-37
2021/11/03 00:43:31;;;;;;;15.60;10.05;;;;;;;5.42;90.63;100089.34;5055306;28;20064;-37
2021/11/03 00:45:56;;;;;;;14.30;9.93;;;;;;;5.36;90.75;100097.69;5055313;28;20090;-40
2021/11/03 00:48:21;;;;;;;19.45;10.38;;;;;;;5.42;90.56;100092.69;5055253;28;20491;-38
2021/11/03 00:50:48;;;;;;;18.80;10.80;;;;;;;5.51;90.33;100093.44;5055221;28;20043;-38
2021/11/03 00:53:13;;;;;;;18.38;11.05;;;;;;;5.53;90.34;100101.75;5054821;28;20059;-38
2021/11/03 00:55:40;;;;;;;20.73;11.18;;;;;;;5.57;90.33;100092.75;5055047;28;20113;-37
2021/11/03 00:58:06;;;;;;;18.90;12.00;;;;;;;5.63;90.07;100098.94;5055049;28;20104;-39
2021/11/03 01:00:32;;;;;;;17.63;11.88;;;;;;;5.61;90.34;100100.88;5055320;28;20045;-38
2021/11/03 01:02:58;;;;;;;19.17;12.60;;;;;;;5.53;90.17;100088.16;5055070;28;20026;-38
2021/11/03 01:05:25;;;;;;;20.60;13.15;;;;;;;5.56;90.66;100088.59;5054898;28;20455;-38
2021/11/03 01:07:50;;;;;;;23.13;13.93;;;;;;;5.53;91.06;100083.03;5055394;28;20111;-38
2021/11/03 01:10:17;;;;;;;25.02;14.88;;;;;;;5.45;91.59;100095.88;5054820;28;20440;-38
2021/11/03 01:12:43;;;;;;;21.33;14.02;;;;;;;5.48;91.58;100093.78;5055011;28;20025;-37
2021/11/03 01:15:11;;;;;;;23.83;14.27;;;;;;;5.50;91.47;100101.31;5054741;28;20024;-38
2021/11/03 01:17:37;;;;;;;23.73;14.77;;;;;;;5.49;92.03;100092.78;5054592;28;20024;-38
2021/11/03 01:20:05;;;;;;;27.40;15.00;;;;;;;5.51;91.73;100092.63;5054643;28;20083;-37
2021/11/03 01:22:30;;;;;;;23.92;14.23;;;;;;;5.51;91.76;100093.44;5054460;28;20021;-37
2021/11/03 01:24:55;;;;;;;23.42;14.63;;;;;;;5.48;91.75;100093.78;5054464;28;20075;-36
2021/11/03 01:27:21;;;;;;;25.52;15.10;;;;;;;5.44;91.50;100087.41;5054735;28;20036;-38
2021/11/03 01:29:46;;;;;;;23.90;15.77;;;;;;;5.42;92.17;100091.91;5054425;28;20025;-37
2021/11/03 01:32:11;;;;;;;27.25;15.88;;;;;;;5.28;92.21;100090.06;5055134;28;20021;-38
2021/11/03 01:34:36;;;;;;;23.80;15.95;;;;;;;5.25;92.69;100093.75;5054015;28;20032;-37
2021/11/03 01:37:02;;;;;;;25.83;16.48;;;;;;;5.21;92.59;100092.50;5054294;28;20430;-37
2021/11/03 01:39:29;;;;;;;27.10;16.63;;;;;;;5.20;92.62;100088.31;5054281;28;20054;-38
2021/11/03 01:41:54;;;;;;;25.92;16.63;;;;;;;5.23;92.88;100079.50;5054394;28;20018;-38
2021/11/03 01:44:19;;;;;;;24.55;16.17;;;;;;;5.20;92.96;100078.06;5054435;28;20032;-37
2021/11/03 01:46:56;;;;;;;25.05;16.08;;;;;;;5.22;92.15;100075.38;5054069;28;20112;-37
2021/11/03 01:49:27;;;;;;;26.52;17.23;;;;;;;5.04;93.57;100078.97;5054441;28;20029;-38
2021/11/03 01:52:00;;;;;;;30.15;16.38;;;;;;;5.00;92.88;100077.69;5048593;28;20040;-38
2021/11/03 01:54:40;;;;;;;46.38;18.15;;;;;;;5.03;93.05;100077.38;5014848;28;20101;-38
2021/11/03 01:57:09;;;;;;;33.25;17.08;;;;;;;5.07;92.95;100070.97;5014530;28;20097;-38
2021/11/03 01:59:45;;;;;;;31.25;17.08;;;;;;;5.03;93.09;100079.13;5014253;28;20030;-37
2021/11/03 02:02:14;;;;;;;36.65;17.27;;;;;;;5.18;92.13;100080.03;5014141;28;20040;-37
2021/11/03 02:04:40;;;;;;;32.10;17.33;;;;;;;5.11;93.46;100081.66;5013930;28;20041;-37
2021/11/03 02:07:13;;;;;;;35.53;17.52;;;;;;;5.20;92.92;100078.06;5014330;28;20145;-38
2021/11/03 02:09:38;;;;;;;40.28;16.45;;;;;;;5.33;92.43;100078.34;5013981;28;20036;-37
2021/11/03 02:12:04;;;;;;;86.22;16.55;;;;;;;5.18;92.28;100075.69;5014032;28;20100;-38
2021/11/03 02:14:29;;;;;;;40.38;16.33;;;;;;;4.95;92.95;100062.06;5013934;28;20499;-38
2021/11/03 02:16:55;;;;;;;69.70;16.27;;;;;;;4.98;93.15;100071.97;5014210;28;20026;-38
2021/11/03 02:19:28;;;;;;;47.97;15.80;;;;;;;5.05;93.26;100072.09;5014037;28;20028;-38
2021/11/03 02:22:04;;;;;;;58.53;15.65;;;;;;;4.96;93.03;100073.88;5013672;28;20033;-37
2021/11/03 02:24:44;;;;;;;55.97;15.70;;;;;;;4.86;93.99;100068.16;5013809;28;20026;-38
2021/11/03 02:27:12;;;;;;;42.72;16.30;;;;;;;5.02;93.46;100068.09;5014050;28;20030;-37
2021/11/03 02:29:37;;;;;;;44.83;16.15;;;;;;;4.99;92.88;100065.88;5013696;28;20109;-37
2021/11/03 02:32:22;;;;;;;29.33;15.50;;;;;;;5.13;93.04;100066.94;5013919;28;20049;-38
2021/11/03 02:34:48;;;;;;;21.30;14.13;;;;;;;5.16;92.25;100067.38;5013643;28;20026;-38
2021/11/03 02:37:28;;;;;;;26.30;15.15;;;;;;;5.22;92.65;100052.31;5013405;28;20080;-42
2021/11/03 02:39:59;;;;;;;22.30;14.32;;;;;;;5.26;92.26;100056.91;5014132;28;20038;-38
2021/11/03 02:42:28;;;;;;;22.70;14.73;;;;;;;5.18;91.77;100041.63;5013709;28;20062;-37
2021/11/03 02:44:58;;;;;;;21.83;14.18;;;;;;;5.36;91.72;100049.81;5012663;28;20060;-37
2021/11/03 02:47:23;;;;;;;23.13;14.00;;;;;;;5.38;91.01;100050.44;5014003;28;20029;-37
2021/11/03 02:49:49;;;;;;;22.10;14.35;;;;;;;5.45;90.74;100050.56;5013498;28;20097;-37
2021/11/03 02:52:20;;;;;;;22.33;13.10;;;;;;;5.49;90.98;100040.75;5019007;28;20052;-38
2021/11/03 02:54:46;;;;;;;21.75;14.15;;;;;;;5.34;90.82;100038.94;5032980;28;20105;-37
2021/11/03 02:57:11;;;;;;;23.05;15.25;;;;;;;5.20;91.29;100032.75;5033212;28;20450;-38
2021/11/03 02:59:37;;;;;;;24.85;13.95;;;;;;;5.27;91.75;100030.34;5033108;28;20032;-37
2021/11/03 03:02:05;;;;;;;23.63;14.55;;;;;;;5.23;91.60;100034.19;5013603;28;20129;-37
2021/11/03 03:04:36;;;;;;;19.90;12.93;;;;;;;5.16;91.26;100031.53;5013592;28;20500;-38
2021/11/03 03:07:02;;;;;;;25.48;14.07;;;;;;;5.08;91.08;100025.66;5013501;28;20053;-38
2021/11/03 03:09:27;;;;;;;21.73;13.23;;;;;;;5.22;91.09;100026.69;5013327;28;20057;-37
2021/11/03 03:12:00;;;;;;;21.50;13.25;;;;;;;5.06;91.06;100028.38;5013319;28;20025;-37
2021/11/03 03:14:29;;;;;;;21.08;13.00;;;;;;;4.96;90.81;100023.47;5013165;28;20124;-37
2021/11/03 03:16:54;;;;;;;21.63;13.05;;;;;;;4.88;91.34;100026.06;4995550;28;20018;-38
2021/11/03 03:19:20;;;;;;;20.15;13.55;;;;;;;4.90;91.33;100029.28;5013114;28;20026;-37
2021/11/03 03:21:45;;;;;;;19.38;12.90;;;;;;;4.96;90.94;100028.59;5013132;28;20496;-38
2021/11/03 03:24:14;;;;;;;21.55;13.55;;;;;;;4.92;91.15;100019.66;5013680;28;20025;-38
2021/11/03 03:26:40;;;;;;;19.83;13.32;;;;;;;4.73;92.27;100022.63;5013251;28;20044;-38
2021/11/03 03:29:06;;;;;;;18.98;12.80;;;;;;;4.81;91.89;100022.59;5013155;28;20361;-37
2021/11/03 03:31:33;;;;;;;21.10;13.48;;;;;;;4.78;92.00;100020.38;5013362;28;20048;-37
2021/11/03 03:34:02;;;;;;;23.20;14.10;;;;;;;4.82;91.35;100029.31;5013137;28;20061;-37
2021/11/03 03:36:28;;;;;;;17.98;12.52;;;;;;;4.80;91.46;100027.88;5012832;28;20034;-38
2021/11/03 03:38:53;;;;;;;20.98;13.50;;;;;;;4.74;91.16;100027.56;5013094;28;20052;-39
2021/11/03 03:41:21;;;;;;;17.25;12.23;;;;;;;4.63;91.13;100032.25;5013009;28;20030;-37
2021/11/03 03:43:46;;;;;;;17.58;12.30;;;;;;;4.59;91.64;100034.38;5012939;28;20033;-37
2021/11/03 03:46:12;;;;;;;18.60;12.77;;;;;;;4.52;91.52;100031.69;5013013;28;20030;-38
2021/11/03 03:48:38;;;;;;;20.30;13.48;;;;;;;4.57;92.09;100020.13;5012885;28;20033;-38
2021/11/03 03:51:05;;;;;;;21.55;13.20;;;;;;;4.58;90.96;100027.66;5012907;28;20030;-38
2021/11/03 03:53:30;;;;;;;17.70;12.70;;;;;;;4.53;90.47;100032.47;5012710;28;20567;-36
2021/11/03 03:55:55;;;;;;;18.20;12.52;;;;;;;4.45;89.69;100029.94;5013840;28;20058;-36
2021/11/03 03:58:21;;;;;;;20.25;12.77;;;;;;;4.41;89.77;100042.25;5016897;28;20025;-37
2021/11/03 04:00:49;;;;;;;18.83;11.98;;;;;;;4.21;90.63;100043.59;5016449;28;20052;-37
2021/11/03 04:03:14;;;;;;;23.42;12.45;;;;;;;4.08;91.40;100044.09;5016214;28;20026;-38
2021/11/03 04:05:43;;;;;;;17.05;12.48;;;;;;;4.17;91.61;100055.09;5017106;28;20479;-37
2021/11/03 04:08:10;;;;;;;24.20;11.52;;;;;;;4.24;90.94;100053.50;5016517;28;20021;-37
2021/11/03 04:10:35;;;;;;;99.82;12.05;;;;;;;3.98;90.50;100061.38;5016166;28;20026;-37
2021/11/03 04:13:00;;;;;;;120.18;15.55;;;;;;;3.81;91.74;100078.47;5016724;28;20073;-37
2021/11/03 04:15:26;;;;;;;134.05;12.60;;;;;;;3.69;92.29;100080.53;5016421;28;20029;-39
2021/11/03 04:17:51;;;;;;;180.70;12.40;;;;;;;3.67;91.78;100089.31;5016360;28;20404;-39
2021/11/03 04:20:16;;;;;;;102.05;11.77;;;;;;;3.61;92.10;100095.88;5015982;28;20432;-38
2021/11/03 04:22:42;;;;;;;52.83;11.23;;;;;;;3.55;91.99;100093.94;5016157;28;20033;-44
2021/11/03 04:25:08;;;;;;;21.73;11.52;;;;;;;3.46;91.70;100097.44;5015974;28;20022;-38
2021/11/03 04:27:34;;;;;;;17.48;11.48;;;;;;;3.38;91.98;100086.25;5015794;28;20025;-37
2021/11/03 04:29:59;;;;;;;14.77;10.40;;;;;;;3.47;91.43;100099.03;5016138;28;20072;-38
2021/11/03 04:32:25;;;;;;;14.50;10.32;;;;;;;3.63;90.58;100105.94;5015787;28;20064;-37
2021/11/03 04:34:50;;;;;;;16.13;10.98;;;;;;;3.63;91.02;100119.50;5015790;28;20060;-37
2021/11/03 04:37:16;;;;;;;30.05;11.23;;;;;;;3.10;91.95;100110.44;5015716;28;20108;-37
2021/11/03 04:39:41;;;;;;;26.08;12.93;;;;;;;3.10;92.56;100110.44;5015714;28;20469;-36
2021/11/03 04:42:06;;;;;;;96.80;13.20;;;;;;;3.05;92.19;100115.19;5015526;28;20026;-36
2021/11/03 04:44:32;;;;;;;32.10;14.05;;;;;;;3.17;93.18;100109.66;5015597;28;20036;-37
2021/11/03 04:46:57;;;;;;;68.65;13.30;;;;;;;3.12;92.49;100119.53;5015808;28;20476;-37
2021/11/03 04:49:22;;;;;;;24.77;12.52;;;;;;;3.25;92.98;100113.19;5015645;28;20037;-36
2021/11/03 04:51:48;;;;;;;87.75;12.82;;;;;;;3.23;91.49;100112.56;5015311;28;20025;-37
2021/11/03 04:54:14;;;;;;;77.10;14.75;;;;;;;3.36;91.76;100118.00;5015693;28;20060;-37
2021/11/03 04:56:39;;;;;;;98.68;13.30;;;;;;;3.24;92.18;100116.69;5015546;28;20109;-38
2021/11/03 04:59:06;;;;;;;90.22;14.52;;;;;;;2.96;93.34;100116.91;5015495;28;20385;-37
2021/11/03 05:01:31;;;;;;;127.43;14.75;;;;;;;2.83;93.18;100091.03;5015352;28;20037;-37
2021/11/03 05:03:57;;;;;;;89.18;16.85;;;;;;;2.83;94.20;100119.09;5015517;28;20025;-38
2021/11/03 05:06:25;;;;;;;78.55;15.98;;;;;;;3.21;93.28;100124.69;5015176;28;20034;-37
2021/11/03 05:08:52;;;;;;;71.30;14.18;;;;;;;3.25;92.37;100123.41;5014324;28;20022;-39
2021/11/03 05:11:17;;;;;;;148.80;14.80;;;;;;;3.01;92.55;100132.56;5015129;28;20026;-39
2021/11/03 05:13:43;;;;;;;192.20;16.35;;;;;;;3.01;92.75;100134.34;5015084;28;20049;-38
2021/11/03 05:16:13;;;;;;;134.68;15.70;;;;;;;3.12;92.88;100137.41;5014964;28;20057;-39
2021/11/03 05:18:39;;;;;;;94.40;16.30;;;;;;;3.01;93.38;100136.88;5015143;28;20033;-36
2021/11/03 05:21:04;;;;;;;186.05;17.13;;;;;;;2.98;93.69;100135.44;5014793;28;20376;-36
2021/11/03 05:23:29;;;;;;;152.52;15.65;;;;;;;3.06;92.95;100109.16;5014871;28;20026;-38
2021/11/03 05:25:55;;;;;;;130.57;15.95;;;;;;;3.21;92.25;100137.44;5015003;28;20040;-38
2021/11/03 05:28:21;;;;;;;89.47;15.18;;;;;;;3.29;92.46;100138.28;5014775;28;20431;-36
2021/11/03 05:30:47;;;;;;;106.78;14.35;;;;;;;3.29;92.47;100138.28;5015392;28;20067;-36
2021/11/03 05:33:12;;;;;;;104.95;14.02;;;;;;;3.21;92.77;100142.56;5014765;28;20511;-37
2021/11/03 05:35:38;;;;;;;127.20;14.73;;;;;;;3.11;92.42;100142.69;5014758;28;20026;-37
2021/11/03 05:38:03;;;;;;;92.00;13.30;;;;;;;3.17;93.06;100142.06;5014974;28;20029;-37
2021/11/03 05:40:30;;;;;;;79.63;15.88;;;;;;;3.01;93.82;100129.22;5015278;28;20021;-38
2021/11/03 05:42:56;;;;;;;55.83;13.93;;;;;;;3.17;93.97;100135.19;5014766;28;20030;-37
2021/11/03 05:45:22;;;;;;;103.78;13.82;;;;;;;3.16;93.35;100137.91;5014605;28;20029;-37
2021/11/03 05:47:48;;;;;;;80.72;13.60;;;;;;;3.19;93.14;100135.03;5015345;28;20121;-38
2021/11/03 05:50:17;;;;;;;88.43;14.95;;;;;;;3.06;92.82;100138.03;5014784;28;20432;-37
2021/11/03 05:52:42;;;;;;;106.03;15.40;;;;;;;3.22;93.15;100136.47;5014216;28;20050;-37
2021/11/03 05:55:08;;;;;;;82.03;14.50;;;;;;;3.25;93.07;100137.00;5014964;28;20080;-37
2021/11/03 05:57:36;;;;;;;107.10;15.05;;;;;;;3.37;92.38;100135.75;5014582;28;20056;-38
2021/11/03 06:00:17;;;;;;;109.15;14.77;;;;;;;3.38;92.12;100126.31;5014623;28;20025;-37
2021/11/03 06:02:43;;;;;;;93.10;13.55;;;;;;;3.35;92.67;100127.44;5014432;28;20030;-37
2021/11/03 06:05:09;;;;;;;62.95;13.32;;;;;;;3.39;92.73;100123.63;5013945;28;20029;-38
2021/11/03 06:07:35;;;;;;;60.10;13.63;;;;;;;3.37;92.65;100127.28;5014200;28;20468;-37
2021/11/03 06:10:02;;;;;;;70.70;13.10;;;;;;;3.46;92.33;100134.00;5014402;28;20026;-37
2021/11/03 06:12:27;;;;;;;69.18;13.93;;;;;;;3.49;91.69;100131.13;5013950;28;20097;-37
2021/11/03 06:14:53;;;;;;;80.90;13.32;;;;;;;3.38;91.66;100131.44;5013977;28;20116;-37
2021/11/03 06:17:18;;;;;;;68.05;13.07;;;;;;;3.44;91.63;100125.69;5014020;28;20038;-37
2021/11/03 06:19:43;;;;;;;100.22;14.18;;;;;;;3.46;91.36;100131.44;5013893;28;20021;-38
2021/11/03 06:22:09;;;;;;;77.43;14.30;;;;;;;3.38;92.28;100126.31;5013930;28;20357;-37
2021/11/03 06:24:36;;;;;;;79.70;13.63;;;;;;;3.36;92.11;100107.78;5014133;28;20376;-37
2021/11/03 06:27:03;;;;;;;69.43;14.70;;;;;;;3.42;91.81;100125.03;5010207;23;20490;-67
2021/11/03 06:29:28;;;;;;;65.53;14.27;;;;;;;3.39;91.91;100118.50;4993969;28;20404;-68
2021/11/03 06:31:53;;;;;;;62.92;13.25;;;;;;;3.46;92.22;100121.22;4977124;28;20026;-68
2021/11/03 06:34:18;;;;;;;57.97;13.73;;;;;;;3.37;91.49;100119.63;4994386;28;20026;-68
2021/11/03 06:36:44;;;;;;;76.78;14.80;;;;;;;3.31;91.80;100115.13;4994239;28;20081;-68
2021/11/03 06:39:09;;;;;;;57.88;13.63;;;;;;;3.31;91.89;100118.50;4994259;28;20380;-68
2021/11/03 06:41:37;;;;;;;32.63;13.85;;;;;;;3.33;92.13;100110.66;4994181;28;20029;-69
2021/11/03 06:44:02;;;;;;;63.10;14.45;;;;;;;3.38;91.95;100127.13;5009020;28;20034;-67
2021/11/03 06:46:28;;;;;;;47.97;12.40;;;;;;;3.39;91.35;100117.69;4994731;28;20030;-68
2021/11/03 06:48:53;;;;;;;46.22;12.32;;;;;;;3.34;91.61;100115.63;4976755;28;20053;-67
2021/11/03 06:51:19;;;;;;;57.83;14.38;;;;;;;3.44;91.86;100120.59;4994034;28;20480;-68
2021/11/03 06:53:44;;;;;;;43.05;14.10;;;;;;;3.58;91.63;100121.72;5005676;28;20022;-68
2021/11/03 06:56:10;;;;;;;56.65;12.90;;;;;;;3.55;90.71;100122.84;5013386;28;20025;-68
2021/11/03 06:58:35;;;;;;;74.53;20.58;;;;;;;3.49;91.67;100128.59;4996000;28;20026;-68
2021/11/03 07:01:01;;;;;;;59.55;17.38;;;;;;;3.57;91.29;100133.72;5013477;28;20388;-69
2021/11/03 07:03:28;;;;;;;122.72;17.15;;;;;;;3.63;90.84;100137.41;5013379;28;20160;-66
2021/11/03 07:05:54;;;;;;;197.68;18.50;;;;;;;3.58;90.57;100134.50;5013713;28;20375;-68
2021/11/03 07:08:22;;;;;;;110.35;13.93;;;;;;;3.52;90.30;100138.50;5013427;28;20025;-68
2021/11/03 07:10:52;;;;;;;177.23;14.70;;;;;;;3.18;89.87;100141.09;5013358;28;20026;-69
2021/11/03 07:13:19;;;;;;;203.02;13.77;;;;;;;2.85;90.65;100147.81;5013295;28;20022;-68
2021/11/03 07:15:44;;;;;;;46.40;11.02;;;;;;;2.96;91.02;100155.19;4995833;28;20092;-69
2021/11/03 07:18:10;;;;;;;118.45;13.15;;;;;;;3.08;89.50;100142.97;5013334;28;20029;-67
2021/11/03 07:20:37;;;;;;;56.58;11.85;;;;;;;3.04;91.02;100147.59;5013177;28;20041;-68
2021/11/03 07:23:02;;;;;;;88.03;13.88;;;;;;;3.05;89.32;100153.47;5013020;28;20503;-68
2021/11/03 07:25:28;;;;;;;50.40;11.75;;;;;;;3.01;91.41;100157.31;5013143;28;20060;-66
2021/11/03 07:27:56;;;;;;;75.15;11.98;;;;;;;3.17;89.34;100153.06;5012772;28;20511;-67
2021/11/03 07:30:25;;;;;;;114.90;13.23;;;;;;;3.12;88.41;100155.28;4995484;28;20090;-68
2021/11/03 07:36:16;;;;;;;36.10;12.57;;;;;;;3.05;90.46;100167.06;5017513;28;20037;-67
2021/11/03 07:38:42;;;;;;;123.03;16.15;;;;;;;3.14;90.03;100176.38;5016773;28;20025;-67
2021/11/03 07:41:07;;;;;;;60.53;11.77;;;;;;;2.80;91.42;100173.78;4999378;28;20028;-67
2021/11/03 07:43:34;;;;;;;68.10;11.48;;;;;;;2.96;92.00;100174.81;5017167;28;20108;-68
2021/11/03 07:45:59;;;;;;;144.18;13.75;;;;;;;3.05;90.04;100177.28;5016641;28;20021;-66
2021/11/03 07:48:27;;;;;;;114.55;12.40;;;;;;;3.17;90.53;100176.06;4998996;28;20490;-67
2021/11/03 07:50:56;;;;;;;65.82;13.27;;;;;;;3.38;90.03;100169.75;4998976;28;20037;-67
2021/11/03 07:53:22;;;;;;;48.10;13.57;;;;;;;3.49;89.54;100174.56;4998833;28;20543;-68
2021/11/03 07:55:52;;;;;;;54.92;13.05;;;;;;;3.68;89.31;100188.03;5016602;28;20026;-68
2021/11/03 07:58:21;;;;;;;53.65;12.88;;;;;;;3.61;89.47;100177.63;4999054;28;20379;-67
2021/11/03 08:00:48;;;;;;;84.80;13.45;;;;;;;3.73;89.11;100176.38;4998809;28;20072;-68
2021/11/03 08:03:13;;;;;;;62.13;13.05;;;;;;;3.89;89.36;100173.06;4998745;28;20128;-67
2021/11/03 08:05:38;;;;;;;48.85;11.95;;;;;;;4.05;88.50;100170.50;5016442;28;20105;-68
2021/11/03 08:08:14;;;;;;;44.30;13.35;;;;;;;4.31;87.67;100177.22;5016930;28;20467;-68
2021/11/03 08:10:43;;;;;;;27.65;12.93;;;;;;;4.48;87.04;100173.69;4998721;28;20541;-68
2021/11/03 08:13:17;;;;;;;71.10;12.95;;;;;;;4.58;85.50;100167.63;5016351;28;20030;-67
2021/11/03 08:15:44;;;;;;;47.50;15.55;;;;;;;4.68;86.79;100165.66;5016426;28;20073;-67
2021/11/03 08:18:10;;;;;;;55.55;16.10;;;;;;;4.60;87.38;100165.66;5016510;28;20182;-68
2021/11/03 08:20:37;;;;;;;31.92;13.52;;;;;;;4.50;87.66;100169.22;5016278;28;20041;-68
2021/11/03 08:23:03;;;;;;;39.95;13.60;;;;;;;4.56;86.54;100170.31;5016049;28;20037;-67
2021/11/03 08:25:29;;;;;;;44.85;15.68;;;;;;;4.49;86.80;100172.75;5015986;28;20034;-67
2021/11/03 08:27:54;;;;;;;69.45;14.57;;;;;;;4.50;85.74;100173.53;4998323;28;20073;-68
2021/11/03 08:30:20;;;;;;;50.10;15.82;;;;;;;4.23;86.72;100172.09;5016621;28;20025;-68
2021/11/03 08:33:09;;;;;;;98.38;15.43;;;;;;;3.91;86.86;100172.88;5016048;28;20092;-67
2021/11/03 08:35:36;;;;;;;121.25;14.80;;;;;;;3.72;88.24;100179.91;5015561;28;20096;-67
2021/11/03 08:38:06;;;;;;;48.00;15.48;;;;;;;3.30;90.86;100178.16;5016039;28;20034;-67
2021/11/03 08:40:34;;;;;;;72.53;15.15;;;;;;;3.87;89.47;100176.72;4998386;28;20449;-69
2021/11/03 08:43:02;;;;;;;59.97;12.27;;;;;;;4.25;86.31;100175.31;5014588;28;20026;-68
2021/11/03 08:45:28;;;;;;;35.00;12.05;;;;;;;4.32;87.10;100178.84;5015753;28;20030;-68
2021/11/03 08:47:54;;;;;;;27.35;12.32;;;;;;;4.51;87.04;100181.03;4998103;28;20468;-67
2021/11/03 08:50:24;;;;;;;22.40;11.82;;;;;;;4.60;85.86;100186.16;5015661;28;20105;-67
2021/11/03 08:52:49;;;;;;;27.75;11.93;;;;;;;4.72;85.41;100182.31;5015594;28;20160;-67
2021/11/03 08:55:15;;;;;;;30.63;12.40;;;;;;;4.76;86.93;100183.56;5015592;28;20072;-66
2021/11/03 08:57:42;;;;;;;25.73;11.70;;;;;;;4.86;85.90;100176.50;5015495;28;20096;-68
2021/11/03 09:00:14;;;;;;;66.57;12.63;;;;;;;5.01;84.29;100186.06;5015530;28;20057;-67
2021/11/03 09:02:39;;;;;;;30.67;12.25;;;;;;;5.17;84.64;100188.56;5015352;28;20085;-67
2021/11/03 09:05:05;;;;;;;27.90;12.52;;;;;;;5.19;84.78;100189.19;5015822;28;20021;-68
2021/11/03 09:07:32;;;;;;;27.40;12.73;;;;;;;4.75;86.86;100190.44;5015894;28;20021;-67
2021/11/03 09:09:58;;;;;;;68.63;12.98;;;;;;;5.18;85.30;100198.66;5015319;28;20369;-67
2021/11/03 09:12:23;;;;;;;33.38;12.23;;;;;;;5.33;85.05;100195.41;4997642;28;20048;-67
2021/11/03 09:14:49;;;;;;;24.20;12.50;;;;;;;5.76;84.53;100193.25;5015674;28;20026;-67
2021/11/03 09:17:15;;;;;;;27.75;13.13;;;;;;;6.22;82.77;100198.44;5015141;28;20025;-68
2021/11/03 09:19:41;;;;;;;19.77;11.93;;;;;;;6.81;80.60;100206.22;5015025;28;20028;-68
2021/11/03 09:22:06;;;;;;;16.27;11.75;;;;;;;6.96;80.83;100199.34;4997393;28;20078;-67
2021/11/03 09:27:53;;;;;;;30.17;11.30;;;;;;;6.54;80.86;100207.63;5014908;28;20056;-68
2021/11/03 09:30:24;;;;;;;42.13;12.30;;;;;;;5.70;84.79;100205.00;5014839;28;20383;-68
2021/11/03 09:32:52;;;;;;;25.38;12.35;;;;;;;6.27;83.37;100202.06;5015252;28;20092;-67
2021/11/03 09:35:24;;;;;;;29.83;13.00;;;;;;;6.62;81.56;100204.16;5014497;28;20100;-67
2021/11/03 09:37:50;;;;;;;20.33;13.15;;;;;;;6.34;83.40;100207.31;5014921;28;20288;-68
2021/11/03 09:40:28;;;;;;;35.03;13.40;;;;;;;6.04;85.42;100209.78;4997011;28;20037;-66
2021/11/03 09:42:55;;;;;;;32.00;13.88;;;;;;;6.16;84.92;100205.03;5014655;28;20061;-67
2021/11/03 09:45:34;;;;;;;22.17;13.48;;;;;;;6.86;82.56;100219.34;4996988;28;20049;-69
2021/11/03 09:48:20;;;;;;;23.55;13.40;;;;;;;8.13;77.62;100219.03;5014618;28;20467;-68
2021/11/03 09:50:50;;;;;;;28.60;13.65;;;;;;;9.35;74.00;100216.13;5014847;28;20018;-67
2021/11/03 09:53:21;;;;;;;19.15;12.68;;;;;;;11.24;66.77;100227.91;5014773;28;20026;-67
2021/11/03 09:55:47;;;;;;;18.02;12.27;;;;;;;12.68;62.83;100229.00;5014324;28;20032;-68
2021/11/03 09:58:36;;;;;;;18.48;11.05;;;;;;;16.21;52.58;100240.50;5014328;28;20013;-68
2021/11/03 10:01:16;;;;;;;15.93;11.20;;;;;;;14.71;55.89;100238.97;5014902;28;20037;-68
2021/11/03 10:04:04;;;;;;;16.35;12.43;;;;;;;17.96;46.29;100235.59;5014367;28;20415;-68
2021/11/03 10:06:51;;;;;;;14.95;10.68;;;;;;;17.93;46.71;100233.50;4996756;28;20018;-68
2021/11/03 10:09:16;;;;;;;14.80;10.50;;;;;;;18.67;44.93;100235.28;5014136;28;20025;-67
2021/11/03 10:11:46;;;;;;;18.58;9.82;;;;;;;19.50;41.68;100231.97;5014051;28;20033;-69
2021/11/03 10:14:12;;;;;;;13.40;10.07;;;;;;;20.32;40.81;100237.28;5014264;28;20026;-68
2021/11/03 10:16:39;;;;;;;16.13;9.95;;;;;;;21.21;38.62;100222.59;5014127;28;20029;-68
2021/11/03 10:19:13;;;;;;;13.05;10.40;;;;;;;18.70;44.34;100229.53;5014253;28;20034;-68
2021/11/03 10:21:49;;;;;;;14.50;10.98;;;;;;;16.66;50.18;100223.16;5013898;28;20443;-69
2021/11/03 10:24:15;;;;;;;15.75;11.20;;;;;;;15.67;51.38;100223.66;5014570;28;20096;-69
2021/11/03 10:26:54;;;;;;;16.90;11.98;;;;;;;15.68;52.46;100225.25;5014162;28;20022;-68
2021/11/03 10:29:26;;;;;;;15.43;11.80;;;;;;;15.12;53.41;100220.56;4996214;28;20056;-69
2021/11/03 10:31:54;;;;;;;18.63;11.80;;;;;;;14.25;56.07;100214.50;4996443;28;20040;-69
2021/11/03 10:34:26;;;;;;;16.15;12.48;;;;;;;13.93;57.66;100210.38;4996190;28;20475;-69
2021/11/03 10:37:02;;;;;;;16.40;12.98;;;;;;;12.75;61.35;100206.41;5014186;28;20026;-68
2021/11/03 10:39:40;;;;;;;17.88;13.57;;;;;;;12.27;64.30;100206.25;5013836;28;20025;-67
2021/11/03 10:42:30;;;;;;;19.67;14.13;;;;;;;12.41;64.08;100195.56;5013762;28;20039;-67
2021/11/03 10:45:22;;;;;;;20.65;14.05;;;;;;;14.44;57.92;100202.97;5013720;28;20079;-67
2021/11/03 10:47:52;;;;;;;17.48;13.60;;;;;;;14.92;56.43;100207.16;4996049;28;20061;-67
2021/11/03 10:50:30;;;;;;;20.80;13.80;;;;;;;17.77;48.71;100203.78;5013787;28;20108;-67
2021/11/03 10:53:21;;;;;;;19.95;13.00;;;;;;;18.14;47.39;100200.44;4998179;28;20448;-67
2021/11/03 10:56:08;;;;;;;19.15;12.82;;;;;;;16.75;51.12;100202.66;4996266;28;20333;-68
2021/11/03 10:58:38;;;;;;;19.35;14.02;;;;;;;14.47;57.18;100206.94;4995908;28;20428;-67
2021/11/03 11:01:11;;;;;;;18.95;14.05;;;;;;;13.76;60.10;100201.66;5014116;28;20037;-68
2021/11/03 11:03:49;;;;;;;19.95;15.35;;;;;;;15.00;56.18;100206.81;5013536;28;20484;-68
2021/11/03 11:06:19;;;;;;;20.55;15.80;;;;;;;12.27;64.09;100208.84;5015161;28;20026;-67
2021/11/03 11:08:57;;;;;;;22.33;16.50;;;;;;;11.76;66.61;100213.13;5018113;28;20061;-68
2021/11/03 11:11:24;;;;;;;24.02;17.60;;;;;;;11.32;67.37;100212.16;5018282;28;20030;-68
2021/11/03 11:14:01;;;;;;;26.15;18.35;;;;;;;9.32;76.02;100215.69;5017708;28;20026;-67
2021/11/03 11:16:39;;;;;;;28.73;19.00;;;;;;;9.48;76.03;100211.00;4999811;28;20032;-68
2021/11/03 11:19:36;;;;;;;29.17;20.15;;;;;;;10.00;74.45;100200.97;4999743;28;20379;-67
2021/11/03 11:22:17;;;;;;;29.90;19.38;;;;;;;8.90;77.26;100209.75;5017586;28;20096;-68
2021/11/03 11:25:01;;;;;;;29.80;18.70;;;;;;;8.80;78.37;100208.31;4999623;28;20028;-67
2021/11/03 11:27:29;;;;;;;33.72;19.63;;;;;;;8.69;78.12;100205.41;5017304;28;20488;-68
2021/11/03 11:30:16;;;;;;;34.72;20.38;;;;;;;8.21;81.51;100218.91;4999489;28;20026;-68